Aérodrome :
LOGIN :

S'inscrire | Disclaimer

   EN    FR    IT 

 










Légende :    VFR   VFR Marginal   IFR   IFR Intensif   IFR Très Intensif
Visi : 
Plafond : 
>= 8 km
>= 3000ft
5 à 8 km
1000 à 3000 ft
1500m à 5 km
500 à 1000 ft
800 à 1500m
200 à 500 ft
< 800m
< 200 ft
Symboles :   Orages  Brouillard  Fortes neiges  Fortes précipitations  Vent > 20 kt
SIGMETs :   Divers  Orages  Givrage  Turbulence  Onde Orograph.  Cendres Volcan.






- Altitude de l'aérodrome : 844 ft
- Code IATA : OSR


LKMT - Ostrava-Mosnov

DERNIER METAR :
  • 120030Z 24010KT CAVOK M02/M05 Q1008 NOSIG

METARs EXPIRÉS :
  • 120000Z 23012KT CAVOK M03/M05 Q1009 NOSIG
  • 112330Z 24011KT CAVOK M04/M06 Q1009 NOSIG
  • 112300Z 24009KT CAVOK M05/M08 Q1009 NOSIG
  • 112230Z 26006KT CAVOK M04/M07 Q1010 NOSIG
  • 112200Z 27007KT CAVOK M03/M06 Q1010 NOSIG

TAF TAF LKMT
Valide du 12 à 00h jusqu'au 13 à 06h UTC


112300Z 1200/1306 24009KT CAVOK
TEMPO 1200/1215 25012G22KT
BECMG 1205/1208 9999 BKN020
BECMG 1215/1217 22004KT 7000 -SN OVC014
TEMPO 1217/1305 2500 SN BR BKN007



MET'MAP, la Météo Aéronautique d'un coup d'oeil ! - Copyright ORBIFLY Décembre 2007 - Disclaimer

ORBIFLY MET'MAP TEAM :

Programmation & Développement : Alexandra Zaïnal
Sur une idée originale de : Baudouin d'Aumeries
Assistance à la programmation : Marc-Olivier Méhu
Soutien technique & logistique : Manuel Goepfert

Contact : metmap@orbifly.com




SOURCES & CREDITS :

   NOAA